地図

経路データ

SID SEASON NUMBER BASIN SUBBASIN NAME ISO_TIME NATURE LAT LON WMO_WIND WMO_PRES WMO_AGENCY TRACK_TYPE DIST2LAND LANDFALL IFLAG USA_AGENCY USA_ATCF_ID USA_LAT USA_LON USA_RECORD USA_STATUS USA_WIND USA_PRES USA_SSHS USA_R34_NE USA_R34_SE USA_R34_SW USA_R34_NW USA_R50_NE USA_R50_SE USA_R50_SW USA_R50_NW USA_R64_NE USA_R64_SE USA_R64_SW USA_R64_NW USA_POCI USA_ROCI USA_RMW USA_EYE TOKYO_LAT TOKYO_LON TOKYO_GRADE TOKYO_WIND TOKYO_PRES TOKYO_R50_DIR TOKYO_R50_LONG TOKYO_R50_SHORT TOKYO_R30_DIR TOKYO_R30_LONG TOKYO_R30_SHORT TOKYO_LAND CMA_LAT CMA_LON CMA_CAT CMA_WIND CMA_PRES HKO_LAT HKO_LON HKO_CAT HKO_WIND HKO_PRES NEWDELHI_LAT NEWDELHI_LON NEWDELHI_GRADE NEWDELHI_WIND NEWDELHI_PRES NEWDELHI_CI NEWDELHI_DP NEWDELHI_POCI REUNION_LAT REUNION_LON REUNION_TYPE REUNION_WIND REUNION_PRES REUNION_TNUM REUNION_CI REUNION_RMW REUNION_R34_NE REUNION_R34_SE REUNION_R34_SW REUNION_R34_NW REUNION_R50_NE REUNION_R50_SE REUNION_R50_SW REUNION_R50_NW REUNION_R64_NE REUNION_R64_SE REUNION_R64_SW REUNION_R64_NW BOM_LAT BOM_LON BOM_TYPE BOM_WIND BOM_PRES BOM_TNUM BOM_CI BOM_RMW BOM_R34_NE BOM_R34_SE BOM_R34_SW BOM_R34_NW BOM_R50_NE BOM_R50_SE BOM_R50_SW BOM_R50_NW BOM_R64_NE BOM_R64_SE BOM_R64_SW BOM_R64_NW BOM_ROCI BOM_POCI BOM_EYE BOM_POS_METHOD BOM_PRES_METHOD NADI_LAT NADI_LON NADI_CAT NADI_WIND NADI_PRES WELLINGTON_LAT WELLINGTON_LON WELLINGTON_WIND WELLINGTON_PRES DS824_LAT DS824_LON DS824_STAGE DS824_WIND DS824_PRES TD9636_LAT TD9636_LON TD9636_STAGE TD9636_WIND TD9636_PRES TD9635_LAT TD9635_LON TD9635_WIND TD9635_PRES TD9635_ROCI NEUMANN_LAT NEUMANN_LON NEUMANN_CLASS NEUMANN_WIND NEUMANN_PRES MLC_LAT MLC_LON MLC_CLASS MLC_WIND MLC_PRES USA_GUST BOM_GUST BOM_GUST_PER REUNION_GUST REUNION_GUST_PER USA_SEAHGT USA_SEARAD_NE USA_SEARAD_SE USA_SEARAD_SW USA_SEARAD_NW STORM_SPEED STORM_DIR
1962134N10082 1962 36 NI BB NOT_NAMED 1962-05-13 18:00:00 TS 9.50000 82.3000 main 150 149 O________O____ jtwc_io IO021962 9.50000 82.3000 -1 9.50000 82.3000 TC 3 338
1962134N10082 1962 36 NI BB NOT_NAMED 1962-05-13 21:00:00 TS 9.63750 82.2375 main 149 149 P________P____ IO021962 9.63750 82.2375 -1 9.63750 82.2375 TC 3 343
1962134N10082 1962 36 NI BB NOT_NAMED 1962-05-14 00:00:00 TS 9.80000 82.2000 main 162 162 O________O____ jtwc_io IO021962 9.80000 82.2000 -1 9.80000 82.2000 TC 25 4 354
1962134N10082 1962 36 NI BB NOT_NAMED 1962-05-14 03:00:00 TS 10.0000 82.2000 main 172 172 P________PO___ IO021962 10.0000 82.2000 -1 10.0000 82.2000 TC 25 10.0000 82.2000 1 4 0
1962134N10082 1962 36 NI BB NOT_NAMED 1962-05-14 06:00:00 TS 10.1959 82.1956 main 183 183 O________OP___ jtwc_io IO021962 10.2000 82.2000 -1 10.2000 82.2000 TC 25 10.1797 82.1782 1 4 354
1962134N10082 1962 36 NI BB NOT_NAMED 1962-05-14 09:00:00 TS 10.3521 82.1514 main 196 188 P________PP___ IO021962 10.3500 82.1500 -1 10.3500 82.1500 TC 25 10.3575 82.1551 1 3 345
1962134N10082 1962 36 NI BB NOT_NAMED 1962-05-14 12:00:00 TS 10.5105 82.1098 main 195 195 O________OP___ jtwc_io IO021962 10.5000 82.1000 -1 10.5000 82.1000 TC 25 10.5316 82.1295 1 4 355
1962134N10082 1962 36 NI BB NOT_NAMED 1962-05-14 15:00:00 TS 10.7000 82.1050 main 211 211 P________PO___ IO021962 10.7000 82.1075 -1 10.7000 82.1075 TC 25 10.7000 82.1000 1 4 357
1962134N10082 1962 36 NI BB NOT_NAMED 1962-05-14 18:00:00 TS 10.8876 82.0879 main 228 228 O________OP___ jtwc_io IO021962 10.9000 82.1000 -1 10.9000 82.1000 TC 25 10.8628 82.0636 1 4 345
1962134N10082 1962 36 NI BB NOT_NAMED 1962-05-14 21:00:00 TS 11.0425 82.0133 main 229 218 P________PP___ IO021962 11.0500 82.0150 -1 11.0500 82.0150 TC 25 11.0274 82.0098 1 4 330
1962134N10082 1962 36 NI BB NOT_NAMED 1962-05-15 00:00:00 TS 11.2011 81.9087 main 218 207 O________OP___ jtwc_io IO021962 11.2000 81.9000 -1 11.2000 81.9000 TC 25 11.2033 81.9260 1 4 330
1962134N10082 1962 36 NI BB NOT_NAMED 1962-05-15 03:00:00 TS 11.3850 81.8149 main 208 191 P________PO___ IO021962 11.3775 81.8224 -1 11.3775 81.8224 TC 30 11.4000 81.8000 1 5 333
1962134N10082 1962 36 NI BB NOT_NAMED 1962-05-15 06:00:00 TS 11.6243 81.6850 main 191 156 O________OP___ jtwc_io IO021962 11.6000 81.7000 -1 11.6000 81.7000 TC 35 11.6729 81.6550 1 6 329
1962134N10082 1962 36 NI BB NOT_NAMED 1962-05-15 09:00:00 TS 11.9249 81.4794 main 156 113 P________PP___ IO021962 11.9075 81.4876 -1 11.9075 81.4876 TC 35 11.9596 81.4629 1 8 321
1962134N10082 1962 36 NI BB NOT_NAMED 1962-05-15 12:00:00 TS 12.2055 81.2048 main 113 76 O________OP___ jtwc_io IO021962 12.2000 81.2000 -1 12.2000 81.2000 TC 35 12.2166 81.2144 1 7 310
1962134N10082 1962 36 NI BB NOT_NAMED 1962-05-15 15:00:00 TS 12.4016 80.8917 main 76 32 P________PO___ IO021962 12.4024 80.8875 -1 12.4024 80.8875 TC 35 12.4000 80.9000 3 7 293
1962134N10082 1962 36 NI BB NOT_NAMED 1962-05-15 18:00:00 TS 12.4916 80.5008 main 32 0 O________OP___ jtwc_io IO021962 12.5000 80.5000 -1 12.5000 80.5000 TC 35 12.4747 80.5023 3 9 275
1962134N10082 1962 36 NI BB NOT_NAMED 1962-05-15 21:00:00 TS 12.4819 80.0199 main 0 0 P________PP___ IO021962 12.4876 80.0074 -1 12.4876 80.0074 TC 30 12.4705 80.0448 3 10 265
1962134N10082 1962 36 NI BB NOT_NAMED 1962-05-16 00:00:00 TS 12.4020 79.5216 main 0 0 O________OP___ jtwc_io IO021962 12.4000 79.5000 -1 12.4000 79.5000 TC 25 12.4059 79.5648 3 9 260
1962134N10082 1962 36 NI BB NOT_NAMED 1962-05-16 03:00:00 TS 12.3149 79.0850 main 0 0 P________PO___ IO021962 12.3224 79.0776 -1 12.3224 79.0776 TC 25 12.3000 79.1000 1 8 255
1962134N10082 1962 36 NI BB NOT_NAMED 1962-05-16 06:00:00 TS 12.1898 78.6997 main 0 0 O________OP___ jtwc_io IO021962 12.2000 78.7000 -1 12.2000 78.7000 TC 25 12.1694 78.6991 1 8 247
1962134N10082 1962 36 NI BB NOT_NAMED 1962-05-16 09:00:00 TS 12.0023 78.3399 main 0 0 P________PP___ IO021962 11.9999 78.3500 -1 11.9999 78.3500 TC 25 12.0072 78.3196 1 8 242
1962134N10082 1962 36 NI AS NOT_NAMED 1962-05-16 12:00:00 TS 11.8138 77.9851 main 0 0 O________OP___ jtwc_io IO021962 11.8000 78.0000 -1 11.8000 78.0000 TC 25 11.8413 77.9554 1 8 246
1962134N10082 1962 36 NI AS NOT_NAMED 1962-05-16 15:00:00 TS 11.6850 77.6000 main 0 0 P________PO___ IO021962 11.6775 77.6000 -1 11.6775 77.6000 TC 25 11.7000 77.6000 1 8 254
1962134N10082 1962 36 NI AS NOT_NAMED 1962-05-16 18:00:00 TS 11.5976 77.2048 main 0 0 O________OP___ jtwc_io IO021962 11.6000 77.2000 -1 11.6000 77.2000 TC 25 11.5928 77.2144 1 8 258
1962134N10082 1962 36 NI AS NOT_NAMED 1962-05-16 21:00:00 TS 11.5242 76.8367 main 0 0 P________PP___ IO021962 11.5275 76.8350 -1 11.5275 76.8350 TC 25 11.5176 76.8400 1 7 262
1962134N10082 1962 36 NI AS NOT_NAMED 1962-05-17 00:00:00 TS 11.4945 76.4985 main 0 0 O________OP___ jtwc_io IO021962 11.5000 76.5000 -1 11.5000 76.5000 TC 25 11.4835 76.4956 1 6 269
1962134N10082 1962 36 NI AS NOT_NAMED 1962-05-17 03:00:00 TS 11.5133 76.1800 main 0 0 P________PO___ IO021962 11.5200 76.1700 -1 11.5200 76.1700 TC 25 11.5000 76.2000 1 6 280
1962134N10082 1962 36 NI AS NOT_NAMED 1962-05-17 06:00:00 TS 11.5928 75.9209 main 0 0 O________OP___ jtwc_io IO021962 11.6000 75.9000 -1 11.6000 75.9000 TC 25 11.5785 75.9627 1 5 297
1962134N10082 1962 36 NI AS NOT_NAMED 1962-05-17 09:00:00 TS 11.7299 75.7384 main 0 0 P________PP___ IO021962 11.7425 75.7200 -1 11.7425 75.7200 TC 25 11.7048 75.7752 1 4 314
1962134N10082 1962 36 NI AS NOT_NAMED 1962-05-17 12:00:00 TS 11.8845 75.6084 main 0 0 O________OP___ jtwc_io IO021962 11.9000 75.6000 -1 11.9000 75.6000 TC 25 11.8536 75.6251 1 4 319
1962134N10082 1962 36 NI AS NOT_NAMED 1962-05-17 15:00:00 TS 12.0050 75.4950 main 0 0 P________PO___ IO021962 12.0075 75.4925 -1 12.0075 75.4925 TC 25 12.0000 75.5000 1 3 316
1962134N10082 1962 36 NI AS NOT_NAMED 1962-05-17 18:00:00 TS 12.0997 75.3955 main 0 0 O________OP___ jtwc_io IO021962 12.1000 75.4000 -1 12.1000 75.4000 TC 25 12.0990 75.3864 1 3 315
1962134N10082 1962 36 NI AS NOT_NAMED 1962-05-17 21:00:00 TS 12.1975 75.2974 main 0 0 P________PP___ IO021962 12.2000 75.3000 -1 12.2000 75.3000 TC 25 12.1924 75.2923 1 3 316
1962134N10082 1962 36 NI AS NOT_NAMED 1962-05-18 00:00:00 TS 12.2965 75.2007 main 0 0 O________OP___ jtwc_io IO021962 12.3000 75.2000 -1 12.3000 75.2000 TC 25 12.2896 75.2020 1 3 317
1962134N10082 1962 36 NI AS NOT_NAMED 1962-05-18 03:00:00 TS 12.3900 75.1100 main 0 0 P________PO___ IO021962 12.3850 75.1149 -1 12.3850 75.1149 TC 25 12.4000 75.1000 1 3 316
1962134N10082 1962 36 NI AS NOT_NAMED 1962-05-18 06:00:00 TS 12.5146 74.9854 main 0 0 O________OP___ jtwc_io IO021962 12.5000 75.0000 -1 12.5000 75.0000 TC 25 12.5438 74.9563 1 4 316
1962134N10082 1962 36 NI AS NOT_NAMED 1962-05-18 09:00:00 TS 12.7000 74.8001 main 10 10 P________PP___ IO021962 12.7000 74.8001 -1 12.7000 74.8001 TC 25 12.7001 74.8001 1 5 316
1962134N10082 1962 36 NI AS NOT_NAMED 1962-05-18 12:00:00 TS 12.8854 74.6146 main 21 21 O________OP___ jtwc_io IO021962 12.9000 74.6000 -1 12.9000 74.6000 TC 25 12.8563 74.6438 1 4 316
1962134N10082 1962 36 NI AS NOT_NAMED 1962-05-18 15:00:00 TS 13.0100 74.4900 main 32 32 P________PO___ IO021962 13.0150 74.4849 -1 13.0150 74.4849 TC 25 13.0000 74.5000 1 3 316
1962134N10082 1962 36 NI AS NOT_NAMED 1962-05-18 18:00:00 TS 13.1075 74.3952 main 39 34 O________OP___ jtwc_io IO021962 13.1000 74.4000 -1 13.1000 74.4000 TC 25 13.1225 74.3856 1 3 316
1962134N10082 1962 36 NI AS NOT_NAMED 1962-05-18 21:00:00 TS 13.2100 74.2950 main 44 43 P________PP___ IO021962 13.2000 74.3000 -1 13.2000 74.3000 TC 25 13.2299 74.2849 1 3 316
1962134N10082 1962 36 NI AS NOT_NAMED 1962-05-19 00:00:00 TS 13.3075 74.1973 main 54 54 O________OP___ jtwc_io IO021962 13.3000 74.2000 -1 13.3000 74.2000 TC 25 13.3225 74.1918 1 3 316
1962134N10082 1962 36 NI AS NOT_NAMED 1962-05-19 03:00:00 TS 13.4100 74.1000 main 64 64 P________PO___ IO021962 13.4150 74.1000 -1 13.4150 74.1000 TC 25 13.4000 74.1000 1 3 312
1962134N10082 1962 36 NI AS NOT_NAMED 1962-05-19 06:00:00 TS 13.4868 74.0000 main 75 75 O________OP___ jtwc_io IO021962 13.5000 74.0000 -1 13.5000 74.0000 TC 25 13.4603 73.9999 1 2 296
1962134N10082 1962 36 NI AS NOT_NAMED 1962-05-19 09:00:00 TS 13.5025 73.9000 main 86 86 P________PP___ IO021962 13.5000 73.9000 -1 13.5000 73.9000 TC 25 13.5075 73.8999 1 2 279
1962134N10082 1962 36 NI AS NOT_NAMED 1962-05-19 12:00:00 TS 13.5170 73.8000 main 97 97 O________OP___ jtwc_io IO021962 13.5000 73.8000 -1 13.5000 73.8000 TC 25 13.5509 73.7999 1 2 296
1962134N10082 1962 36 NI AS NOT_NAMED 1962-05-19 15:00:00 TS 13.5950 73.7000 main 102 97 P________PO___ IO021962 13.5925 73.7000 -1 13.5925 73.7000 TC 25 13.6000 73.7000 1 2 314
1962134N10082 1962 36 NI AS NOT_NAMED 1962-05-19 18:00:00 TS 13.6810 73.6229 main 107 107 O________OP___ jtwc_io IO021962 13.7000 73.6000 -1 13.7000 73.6000 TC 25 13.6430 73.6686 1 2 313
1962134N10082 1962 36 NI AS NOT_NAMED 1962-05-19 21:00:00 TS 13.7272 73.5522 main 107 107 P________PP___ IO021962 13.7425 73.5149 -1 13.7425 73.5149 TC 25 13.6967 73.6267 1 2 302
1962134N10082 1962 36 NI AS NOT_NAMED 1962-05-20 00:00:00 TS 13.7924 73.4405 main 121 116 O________OP___ jtwc_io IO021962 13.8000 73.4000 -1 13.8000 73.4000 TC 25 13.7771 73.5215 1 3 305
1962134N10082 1962 36 NI AS NOT_NAMED 1962-05-20 03:00:00 TS 13.9132 73.2832 main 126 126 P________PO___ IO021962 13.9198 73.2748 -1 13.9198 73.2748 TC 25 13.9000 73.3000 1 6 303
1962134N10082 1962 36 NI AS NOT_NAMED 1962-05-20 06:00:00 TS 14.0955 72.9672 main 142 142 O________OP___ jtwc_io IO021962 14.1000 73.0000 -1 14.1000 73.0000 TC 25 14.0864 72.9017 1 9 297
1962134N10082 1962 36 NI AS NOT_NAMED 1962-05-20 09:00:00 TS 14.3328 72.4353 main 184 179 P________PP___ IO021962 14.3427 72.4602 -1 14.3427 72.4602 TC 25 14.3131 72.3855 1 12 293
1962134N10082 1962 36 NI AS NOT_NAMED 1962-05-20 12:00:00 TS 14.5861 71.8005 main 232 232 O________OP___ jtwc_io IO021962 14.6000 71.8000 -1 14.6000 71.8000 TC 25 14.5582 71.8015 1 13 291
1962134N10082 1962 36 NI AS NOT_NAMED 1962-05-20 15:00:00 TS 14.8049 71.1949 main 282 282 P________PO___ IO021962 14.8074 71.1924 -1 14.8074 71.1924 TC 25 14.8000 71.2000 1 12 290
1962134N10082 1962 36 NI AS NOT_NAMED 1962-05-20 18:00:00 TS 14.9996 70.6176 main 334 334 O________OP___ jtwc_io IO021962 15.0000 70.6000 -1 15.0000 70.6000 TC 25 14.9988 70.6527 1 12 290
1962134N10082 1962 36 NI AS NOT_NAMED 1962-05-20 21:00:00 TS 15.1973 70.0564 main 372 372 P________PP___ IO021962 15.1999 70.0349 -1 15.1999 70.0349 TC 25 15.1922 70.0993 1 11 290
1962134N10082 1962 36 NI AS NOT_NAMED 1962-05-21 00:00:00 TS 15.3965 69.5154 main 424 424 O________OP___ jtwc_io IO021962 15.4000 69.5000 -1 15.4000 69.5000 TC 25 15.3894 69.5463 1 11 291
1962134N10082 1962 36 NI AS NOT_NAMED 1962-05-21 03:00:00 TS 15.5949 68.9999 main 470 470 P________PO___ IO021962 15.5923 68.9998 -1 15.5923 68.9998 TC 25 15.6000 69.0000 1 11 293
1962134N10082 1962 36 NI AS NOT_NAMED 1962-05-21 06:00:00 TS 15.8118 68.4865 main 518 518 O________OP___ jtwc_io IO021962 15.8000 68.5000 -1 15.8000 68.5000 TC 25 15.8353 68.4595 1 11 294
1962134N10082 1962 36 NI AS NOT_NAMED 1962-05-21 09:00:00 TS 16.0565 67.9424 main 578 578 P________PP___ IO021962 16.0425 67.9500 -1 16.0425 67.9500 TC 25 16.0846 67.9273 1 12 296
1962134N10082 1962 36 NI AS NOT_NAMED 1962-05-21 12:00:00 TS 16.3139 67.4021 main 608 605 O________OP___ jtwc_io IO021962 16.3000 67.4000 -1 16.3000 67.4000 TC 25 16.3416 67.4064 1 11 297
1962134N10082 1962 36 NI AS NOT_NAMED 1962-05-21 15:00:00 TS 16.5666 66.8899 main 611 611 P________PO___ IO021962 16.5499 66.8849 -1 16.5499 66.8849 TC 25 16.6000 66.9000 1 11 298
1962134N10082 1962 36 NI AS NOT_NAMED 1962-05-21 18:00:00 TS 16.8178 66.4074 main 625 622 O________OP___ jtwc_io IO021962 16.8000 66.4000 -1 16.8000 66.4000 TC 25 16.8534 66.4223 1 10 299
1962134N10082 1962 36 NI AS NOT_NAMED 1962-05-21 21:00:00 TS 17.0687 65.9522 main 628 628 P________PP___ IO021962 17.0498 65.9498 -1 17.0498 65.9498 TC 25 17.1065 65.9568 1 10 300
1962134N10082 1962 36 NI AS NOT_NAMED 1962-05-22 00:00:00 TS 17.3188 65.4960 main 650 650 O________OP___ jtwc_io IO021962 17.3000 65.5000 -1 17.3000 65.5000 TC 25 17.3564 65.4879 1 10 299
1962134N10082 1962 36 NI AS NOT_NAMED 1962-05-22 03:00:00 TS 17.5666 65.0099 main 664 664 P________PO___ IO021962 17.5499 65.0149 -1 17.5499 65.0149 TC 25 17.6000 65.0000 1 11 297
1962134N10082 1962 36 NI AS NOT_NAMED 1962-05-22 06:00:00 TS 17.8139 64.4925 main 677 621 O________OP___ jtwc_io IO021962 17.8000 64.5000 -1 17.8000 64.5000 TC 25 17.8347 64.4814 1 11 296
1962134N10082 1962 36 NI AS NOT_NAMED 1962-05-22 09:00:00 TS 18.0552 63.9486 main 606 551 P________PP___ IO021962 18.0503 63.9578 -1 18.0503 63.9578 TC 25 18.0617 63.9363 1 12 294
1962134N10082 1962 36 NI AS NOT_NAMED 1962-05-22 12:00:00 TS 18.2914 63.3865 main 551 488 O________OP___ jtwc_io IO021962 18.3000 63.4000 -1 18.3000 63.4000 TC 25 18.2828 63.3730 1 12 292
1962134N10082 1962 36 NI AS NOT_NAMED 1962-05-22 15:00:00 NR 18.5000 62.8000 main 488 __________O___ IO021962 -1 TC 18.5000 62.8000 1 12 291

IBTrACS Databaseについて

本データベースは、米国NOAAが公開する1842年以降の世界の熱帯低気圧のベストトラックデータアーカイブInternational Best Track Archive for Climate Stewardship (IBTrACS)を、ウェブで閲覧しやすい形式に変換したものです。

最終更新日:2021-12-03